Terminal Aerodrome Forecast
Issued by NWS

Home | Current Version | Previous Version | Text Only | Print | Product List | Glossary On
Versions: 1 2 3 4 5 6 7 8 9 10 11 12 13 14 15 16
000
FTUS43 KJKL 021125 AAA
TAFSME
TAF AMD
KSME 021125Z 0211/0312 35005KT 3SM -DZ BKN008 OVC013
     FM021300 VRB04KT 5SM BR FEW008 SCT015 BKN020
     FM021400 VRB03KT P6SM SCT010 BKN022
     FM021700 VRB03KT P6SM SCT020 SCT100
     FM022100 VRB03KT P6SM FEW030 SCT250=

USA.gov is the U.S. government's official web portal to all federal, state and local government web resources and services.